Time;durP1;ratioP1;P1;durP2;ratioP2;P2;SDS_P1;SDS_P2;PMS_P1;PMS_P2;Temp;Humidity;BMP_temperature;BMP_pressure;BME280_temperature;BME280_humidity;BME280_pressure;Samples;Min_cycle;Max_cycle;Signal;HPM_P1;HPM_P2
2023/08/29 00:01:51;;;;;;;3.60;1.70;;;18.40;79.80;;;;;;5139760;27;20031;-68
2023/08/29 00:04:17;;;;;;;2.95;1.35;;;18.40;79.80;;;;;;5140158;27;20019;-68
2023/08/29 00:06:43;;;;;;;5.35;1.40;;;18.40;79.70;;;;;;5139596;27;20459;-68
2023/08/29 00:09:09;;;;;;;8.57;1.95;;;18.40;79.60;;;;;;5138933;27;20016;-68
2023/08/29 00:11:36;;;;;;;5.05;1.33;;;18.30;79.50;;;;;;5139395;27;20027;-68
2023/08/29 00:14:02;;;;;;;2.33;1.40;;;18.30;78.90;;;;;;5139994;27;20030;-68
2023/08/29 00:16:28;;;;;;;3.55;1.27;;;18.30;78.90;;;;;;5139661;27;20027;-68
2023/08/29 00:18:54;;;;;;;7.50;1.48;;;18.30;78.80;;;;;;5139399;27;20023;-68
2023/08/29 00:21:20;;;;;;;4.13;1.33;;;18.20;78.80;;;;;;5139761;27;20333;-68
2023/08/29 00:23:50;;;;;;;7.82;1.52;;;18.20;78.90;;;;;;5139486;27;20049;-68
2023/08/29 00:26:16;;;;;;;5.32;1.10;;;18.10;78.90;;;;;;5139457;27;20074;-68
2023/08/29 00:28:42;;;;;;;3.42;1.48;;;18.10;78.80;;;;;;5138327;27;20444;-68
2023/08/29 00:31:08;;;;;;;4.45;1.15;;;18.10;78.80;;;;;;5139120;27;20452;-68
2023/08/29 00:33:34;;;;;;;2.90;1.20;;;18.10;78.70;;;;;;5138873;27;20051;-68
2023/08/29 00:36:00;;;;;;;5.60;1.35;;;18.10;78.40;;;;;;5138987;27;20031;-68
2023/08/29 00:38:26;;;;;;;3.40;1.15;;;18.20;78.00;;;;;;5138998;27;20080;-68
2023/08/29 00:40:52;;;;;;;2.90;1.10;;;18.20;78.00;;;;;;5138997;27;20015;-68
2023/08/29 00:43:18;;;;;;;4.50;1.00;;;18.10;77.90;;;;;;5139345;27;20049;-68
2023/08/29 00:45:44;;;;;;;4.38;1.20;;;18.20;77.70;;;;;;5139404;27;20110;-68
2023/08/29 00:48:12;;;;;;;3.90;1.23;;;18.20;77.70;;;;;;5138832;27;20451;-69
2023/08/29 00:50:38;;;;;;;3.40;1.40;;;18.20;77.60;;;;;;5139056;27;20098;-68
2023/08/29 00:53:05;;;;;;;3.58;1.15;;;18.20;77.60;;;;;;5138683;27;20351;-69
2023/08/29 00:55:34;;;;;;;2.10;1.10;;;18.30;77.40;;;;;;5138471;27;20051;-68
2023/08/29 00:58:03;;;;;;;1.88;1.08;;;18.30;77.10;;;;;;5138917;27;20038;-68
2023/08/29 01:00:30;;;;;;;8.27;1.50;;;18.40;77.10;;;;;;5138563;27;20031;-69
2023/08/29 01:02:57;;;;;;;3.97;1.20;;;18.40;77.00;;;;;;5138473;27;20039;-68
2023/08/29 01:05:23;;;;;;;7.35;1.60;;;18.40;76.90;;;;;;5138450;27;20075;-69
2023/08/29 01:07:58;;;;;;;2.03;1.05;;;18.40;77.10;;;;;;5138441;27;20042;-69
2023/08/29 01:10:51;;;;;;;6.15;2.15;;;18.50;77.00;;;;;;5138702;27;20333;-69
2023/08/29 01:13:22;;;;;;;6.47;1.63;;;18.50;77.40;;;;;;5138243;27;20083;-68
2023/08/29 01:15:50;;;;;;;3.80;1.75;;;18.50;77.30;;;;;;5138279;27;20160;-68
2023/08/29 01:18:19;;;;;;;4.22;1.48;;;18.60;77.30;;;;;;5139000;27;20031;-68
2023/08/29 01:20:47;;;;;;;4.32;1.80;;;18.50;77.60;;;;;;5138428;27;20050;-68
2023/08/29 01:23:50;;;;;;;2.47;1.35;;;18.50;77.80;;;;;;5138004;27;20467;-69
2023/08/29 01:26:17;;;;;;;3.22;1.45;;;18.50;77.60;;;;;;5086512;27;20152;-68
2023/08/29 01:28:45;;;;;;;4.15;1.45;;;18.50;77.70;;;;;;5138339;27;20039;-68
2023/08/29 01:31:12;;;;;;;6.07;1.70;;;18.50;77.80;;;;;;5138020;27;20019;-68
2023/08/29 01:33:42;;;;;;;7.30;1.83;;;18.60;77.80;;;;;;5137710;27;20043;-68
2023/08/29 01:36:08;;;;;;;5.95;1.80;;;18.60;77.80;;;;;;5137841;27;20016;-68
2023/08/29 01:38:34;;;;;;;5.30;1.70;;;18.60;77.90;;;;;;5137831;27;20041;-69
2023/08/29 01:41:00;;;;;;;5.28;1.73;;;18.60;77.90;;;;;;5138353;27;20068;-68
2023/08/29 01:43:26;;;;;;;5.90;1.73;;;18.60;77.80;;;;;;5137684;27;20031;-69
2023/08/29 01:45:52;;;;;;;5.45;2.03;;;18.60;77.80;;;;;;5137753;27;20391;-69
2023/08/29 01:48:18;;;;;;;5.70;1.83;;;18.70;77.70;;;;;;5138165;27;20062;-69
2023/08/29 01:50:45;;;;;;;3.85;1.50;;;18.70;77.70;;;;;;5137638;27;20106;-69
2023/08/29 01:53:11;;;;;;;5.03;1.70;;;18.70;77.70;;;;;;5137404;27;20106;-68
2023/08/29 01:55:38;;;;;;;4.70;1.70;;;18.70;78.00;;;;;;5137757;27;20023;-69
2023/08/29 01:58:07;;;;;;;5.80;1.90;;;18.80;77.70;;;;;;5137448;27;20034;-69
2023/08/29 02:00:34;;;;;;;3.78;1.63;;;18.90;77.80;;;;;;5137351;27;20129;-69
2023/08/29 02:03:00;;;;;;;6.32;2.08;;;18.90;77.80;;;;;;5137151;27;20368;-68
2023/08/29 02:05:26;;;;;;;6.72;2.13;;;18.90;78.00;;;;;;5137112;27;20019;-68
2023/08/29 02:07:52;;;;;;;4.82;1.80;;;18.90;78.10;;;;;;5137087;27;20098;-68
2023/08/29 02:10:18;;;;;;;6.70;2.20;;;18.90;78.20;;;;;;5137186;27;20401;-68
2023/08/29 02:12:44;;;;;;;5.93;1.85;;;18.90;78.30;;;;;;5137309;27;20106;-68
2023/08/29 02:15:11;;;;;;;4.97;1.92;;;18.90;78.30;;;;;;5137117;27;20019;-68
2023/08/29 02:17:37;;;;;;;8.13;2.20;;;18.90;78.40;;;;;;5137569;27;20027;-68
2023/08/29 02:20:07;;;;;;;5.53;1.52;;;18.90;78.40;;;;;;5137255;27;20038;-68
2023/08/29 02:22:34;;;;;;;6.88;1.88;;;18.90;78.30;;;;;;5136847;27;20046;-69
2023/08/29 02:25:02;;;;;;;7.35;1.90;;;18.90;78.20;;;;;;5137464;27;20459;-68
2023/08/29 02:27:28;;;;;;;3.65;1.80;;;19.00;78.50;;;;;;5136786;27;20031;-68
2023/08/29 02:29:54;;;;;;;6.43;1.92;;;19.00;78.30;;;;;;5137081;27;20090;-68
2023/08/29 02:32:21;;;;;;;5.50;1.80;;;19.00;78.30;;;;;;5136476;27;20078;-68
2023/08/29 02:34:47;;;;;;;8.38;2.13;;;19.10;78.20;;;;;;5136689;27;20110;-68
2023/08/29 02:37:15;;;;;;;8.15;2.22;;;19.00;78.30;;;;;;5136636;27;20079;-67
2023/08/29 02:39:41;;;;;;;5.00;1.98;;;19.00;78.40;;;;;;5136646;27;20027;-68
2023/08/29 02:42:07;;;;;;;5.18;2.08;;;19.00;78.40;;;;;;5136361;27;20382;-68
2023/08/29 02:44:33;;;;;;;9.45;2.05;;;19.00;78.50;;;;;;5137021;27;20317;-69
2023/08/29 02:46:59;;;;;;;10.25;2.42;;;19.00;78.40;;;;;;5137108;27;20034;-68
2023/08/29 02:49:25;;;;;;;6.93;2.33;;;19.00;78.50;;;;;;5136511;27;20416;-68
2023/08/29 02:51:51;;;;;;;6.38;2.30;;;19.10;78.60;;;;;;5136657;27;20076;-68
2023/08/29 02:54:18;;;;;;;8.15;2.15;;;19.00;78.70;;;;;;5136362;27;20154;-68
2023/08/29 02:56:44;;;;;;;7.32;2.10;;;19.00;78.60;;;;;;5136402;27;20055;-68
2023/08/29 02:59:10;;;;;;;9.60;2.22;;;19.00;78.80;;;;;;5136361;27;20136;-68
2023/08/29 03:01:36;;;;;;;6.93;2.50;;;19.00;78.70;;;;;;5136369;27;20031;-68
2023/08/29 03:04:02;;;;;;;10.43;2.47;;;19.00;78.80;;;;;;5136838;27;20020;-68
2023/08/29 03:06:28;;;;;;;9.32;2.30;;;19.00;79.00;;;;;;5136273;27;20019;-68
2023/08/29 03:08:54;;;;;;;9.73;2.10;;;19.00;79.40;;;;;;5136198;27;20531;-68
2023/08/29 03:11:20;;;;;;;8.77;1.92;;;19.10;79.70;;;;;;5136218;27;20027;-67
2023/08/29 03:13:46;;;;;;;5.05;1.42;;;19.00;80.20;;;;;;5136122;27;20059;-67
2023/08/29 03:16:13;;;;;;;3.40;1.02;;;18.80;80.00;;;;;;5136167;27;20422;-67
2023/08/29 03:18:39;;;;;;;2.50;0.82;;;18.50;79.80;;;;;;5135077;27;20117;-67
2023/08/29 03:21:06;;;;;;;2.22;0.88;;;18.40;79.70;;;;;;5135365;27;20019;-67
2023/08/29 03:23:35;;;;;;;3.90;0.90;;;18.20;80.00;;;;;;5135715;28;20437;-67
2023/08/29 03:26:08;;;;;;;2.95;0.85;;;18.10;80.30;;;;;;5137223;27;20051;-67
2023/08/29 03:28:35;;;;;;;1.58;0.93;;;18.00;80.60;;;;;;5137384;27;20023;-67
2023/08/29 03:31:10;;;;;;;2.80;1.15;;;17.90;81.00;;;;;;5137031;27;20031;-67
2023/08/29 03:33:38;;;;;;;2.95;1.35;;;17.90;81.00;;;;;;5135448;28;20047;-68
2023/08/29 03:36:04;;;;;;;3.17;1.20;;;17.90;81.30;;;;;;5135932;27;20030;-67
2023/08/29 03:38:30;;;;;;;3.08;1.38;;;17.90;81.40;;;;;;5136191;27;20049;-67
2023/08/29 03:40:57;;;;;;;5.35;1.50;;;17.90;81.50;;;;;;5136088;28;20031;-67
2023/08/29 03:43:27;;;;;;;6.95;1.33;;;17.90;81.60;;;;;;5135128;28;20032;-67
2023/08/29 03:46:21;;;;;;;4.60;1.42;;;17.90;81.70;;;;;;5135794;27;20058;-67
2023/08/29 03:48:47;;;;;;;2.70;1.50;;;17.90;81.60;;;;;;5073360;28;20032;-67
2023/08/29 03:51:13;;;;;;;5.80;1.45;;;17.90;81.50;;;;;;5073145;28;20033;-67
2023/08/29 03:53:39;;;;;;;5.95;1.60;;;17.90;81.60;;;;;;5073018;28;20231;-67
2023/08/29 03:56:07;;;;;;;5.53;1.85;;;18.00;81.60;;;;;;5072967;28;20039;-67
2023/08/29 03:58:33;;;;;;;7.18;2.17;;;17.90;82.10;;;;;;5072799;28;20378;-67
2023/08/29 04:00:59;;;;;;;7.22;2.10;;;17.90;82.10;;;;;;5072873;28;20028;-67
2023/08/29 04:03:25;;;;;;;5.25;1.77;;;17.80;82.30;;;;;;5055829;28;20024;-67
2023/08/29 04:05:51;;;;;;;4.97;1.98;;;17.80;82.40;;;;;;5072897;28;20037;-67
2023/08/29 04:08:17;;;;;;;9.48;2.08;;;17.70;82.80;;;;;;5072775;28;20346;-67
2023/08/29 04:10:45;;;;;;;5.90;1.52;;;17.70;82.70;;;;;;5072976;28;20438;-66
2023/08/29 04:13:11;;;;;;;5.68;1.65;;;17.70;83.00;;;;;;5073058;28;20036;-66
2023/08/29 04:15:37;;;;;;;5.47;1.80;;;17.60;83.20;;;;;;5072679;28;20074;-66
2023/08/29 04:18:03;;;;;;;4.55;2.00;;;17.60;83.10;;;;;;5072680;28;20032;-66
2023/08/29 04:20:30;;;;;;;8.98;2.35;;;17.60;83.60;;;;;;5073205;28;20107;-66
2023/08/29 04:22:58;;;;;;;8.07;2.38;;;17.60;83.80;;;;;;5072446;28;20109;-66
2023/08/29 04:25:28;;;;;;;6.60;2.00;;;17.60;84.30;;;;;;5101653;28;20165;-66
2023/08/29 04:27:54;;;;;;;7.07;2.63;;;17.60;84.00;;;;;;5135721;27;20110;-66
2023/08/29 04:30:20;;;;;;;8.85;2.55;;;17.60;84.30;;;;;;5138378;27;20477;-66
2023/08/29 04:32:50;;;;;;;7.63;2.30;;;17.60;84.80;;;;;;5138949;27;20360;-67
2023/08/29 04:35:16;;;;;;;10.48;2.55;;;17.50;84.20;;;;;;5139087;27;20026;-67
2023/08/29 04:37:46;;;;;;;8.32;2.08;;;17.50;84.40;;;;;;5139104;27;20132;-67
2023/08/29 04:40:12;;;;;;;9.07;2.40;;;17.50;84.10;;;;;;5139286;27;20087;-67
2023/08/29 04:42:40;;;;;;;4.03;1.73;;;17.50;84.00;;;;;;5138829;27;20038;-68
2023/08/29 04:45:07;;;;;;;6.78;2.17;;;17.50;84.10;;;;;;5139193;27;20107;-67
2023/08/29 04:47:34;;;;;;;7.53;2.00;;;17.60;84.10;;;;;;5138845;27;20072;-67
2023/08/29 04:50:00;;;;;;;5.07;1.98;;;17.70;84.00;;;;;;5137935;27;20103;-67
2023/08/29 04:52:27;;;;;;;6.72;2.28;;;17.70;83.90;;;;;;5139231;27;20027;-67
2023/08/29 04:54:54;;;;;;;8.95;2.50;;;17.70;84.20;;;;;;5138713;27;20106;-67
2023/08/29 04:57:20;;;;;;;8.25;2.22;;;17.70;84.10;;;;;;5138770;27;20038;-67
2023/08/29 04:59:47;;;;;;;7.18;2.35;;;17.70;83.90;;;;;;5138650;27;20019;-67
2023/08/29 05:02:14;;;;;;;5.13;2.28;;;17.70;83.80;;;;;;5138723;27;20056;-67
2023/08/29 05:04:42;;;;;;;5.72;2.30;;;17.70;83.90;;;;;;5138813;27;20050;-67
2023/08/29 05:07:08;;;;;;;6.93;2.15;;;17.60;84.20;;;;;;5138770;27;20094;-67
2023/08/29 05:09:34;;;;;;;6.85;2.45;;;17.60;84.00;;;;;;5138952;27;20053;-67
2023/08/29 05:12:00;;;;;;;7.25;2.33;;;17.60;83.90;;;;;;5138581;27;20071;-67
2023/08/29 05:14:26;;;;;;;8.43;2.53;;;17.60;84.20;;;;;;5138844;27;20019;-69
2023/08/29 05:16:52;;;;;;;4.47;2.50;;;17.60;84.10;;;;;;5138351;27;20031;-69
2023/08/29 05:19:18;;;;;;;5.45;2.00;;;17.60;84.30;;;;;;5138573;27;20034;-68
2023/08/29 05:21:44;;;;;;;5.20;2.08;;;17.60;84.20;;;;;;5138127;27;20031;-68
2023/08/29 05:24:10;;;;;;;7.18;2.40;;;17.50;84.20;;;;;;5138192;27;20019;-68
2023/08/29 05:26:36;;;;;;;5.97;1.92;;;17.60;84.00;;;;;;5138662;27;20027;-68
2023/08/29 05:29:02;;;;;;;7.65;2.30;;;17.50;84.10;;;;;;5138112;27;20011;-68
2023/08/29 05:31:29;;;;;;;4.68;1.67;;;17.50;83.90;;;;;;5128955;27;20448;-67
2023/08/29 05:33:55;;;;;;;4.70;1.83;;;17.50;83.80;;;;;;5126369;27;20019;-67
2023/08/29 05:36:21;;;;;;;6.05;1.80;;;17.50;83.90;;;;;;5123543;27;20088;-67
2023/08/29 05:38:47;;;;;;;6.22;2.08;;;17.50;83.90;;;;;;5127746;27;20016;-65
2023/08/29 05:41:14;;;;;;;5.97;2.08;;;17.50;83.80;;;;;;5127092;27;20030;-68
2023/08/29 05:43:40;;;;;;;4.82;1.52;;;17.50;83.70;;;;;;5127453;27;20030;-67
2023/08/29 05:46:06;;;;;;;6.05;2.00;;;17.50;83.50;;;;;;5121063;27;20023;-66
2023/08/29 05:48:32;;;;;;;4.80;2.08;;;17.50;83.30;;;;;;5125029;27;20019;-67
2023/08/29 05:50:58;;;;;;;4.95;2.22;;;17.50;83.30;;;;;;5135802;27;20062;-67
2023/08/29 05:53:24;;;;;;;3.88;1.80;;;17.40;83.40;;;;;;5129777;27;20449;-66
2023/08/29 05:55:50;;;;;;;5.10;1.75;;;17.40;83.30;;;;;;5134672;27;20053;-65
2023/08/29 05:58:16;;;;;;;5.78;2.22;;;17.40;83.30;;;;;;5134498;27;20444;-66
2023/08/29 06:00:42;;;;;;;4.38;1.80;;;17.30;83.20;;;;;;5128503;27;20043;-66
2023/08/29 06:03:09;;;;;;;3.67;1.80;;;17.40;83.10;;;;;;5132031;27;20023;-67
2023/08/29 06:05:41;;;;;;;4.70;1.80;;;17.30;83.10;;;;;;5137117;27;20391;-66
2023/08/29 06:08:08;;;;;;;4.32;1.67;;;17.20;83.00;;;;;;5128134;27;20133;-67
2023/08/29 06:10:33;;;;;;;5.53;1.48;;;17.30;83.00;;;;;;5122460;27;20024;-67
2023/08/29 06:12:59;;;;;;;5.10;1.58;;;17.20;83.30;;;;;;5117473;27;20035;-66
2023/08/29 06:15:25;;;;;;;2.85;1.60;;;17.10;83.30;;;;;;5116524;28;20097;-67
2023/08/29 06:17:51;;;;;;;4.80;1.70;;;17.10;83.30;;;;;;5133426;27;20023;-67
2023/08/29 06:20:17;;;;;;;4.38;1.65;;;17.10;83.40;;;;;;5134186;27;20324;-67
2023/08/29 06:22:43;;;;;;;3.33;1.55;;;17.00;83.50;;;;;;5116418;28;20024;-67
2023/08/29 06:25:10;;;;;;;4.05;1.45;;;17.10;83.50;;;;;;5116704;28;20420;-67
2023/08/29 06:27:36;;;;;;;8.70;1.88;;;17.10;83.40;;;;;;5124990;27;20020;-67
2023/08/29 06:30:04;;;;;;;7.20;2.22;;;17.10;83.40;;;;;;5134879;27;20034;-66
2023/08/29 06:32:30;;;;;;;6.82;1.92;;;17.10;83.40;;;;;;5136633;27;20082;-67
2023/08/29 06:34:57;;;;;;;7.28;1.70;;;17.20;83.40;;;;;;5117316;27;20449;-66
2023/08/29 06:37:23;;;;;;;5.82;2.03;;;17.10;83.30;;;;;;5127716;27;20034;-66
2023/08/29 06:39:49;;;;;;;4.90;1.90;;;17.20;83.30;;;;;;5134715;27;20019;-66
2023/08/29 06:42:15;;;;;;;4.88;2.10;;;17.20;83.30;;;;;;5131930;27;20072;-66
2023/08/29 06:44:41;;;;;;;4.85;1.70;;;17.30;83.20;;;;;;5128339;27;20027;-65
2023/08/29 06:47:07;;;;;;;8.32;2.10;;;17.30;83.20;;;;;;5122529;27;20707;-67
2023/08/29 06:49:33;;;;;;;4.30;1.50;;;17.40;83.20;;;;;;5121652;27;20395;-67
2023/08/29 06:51:59;;;;;;;4.28;1.77;;;17.40;83.10;;;;;;5125063;27;20023;-67
2023/08/29 06:54:28;;;;;;;3.55;1.67;;;17.40;83.10;;;;;;5121598;27;20027;-66
2023/08/29 06:56:54;;;;;;;3.90;1.95;;;17.50;83.10;;;;;;5125976;27;20026;-68
2023/08/29 06:59:20;;;;;;;3.28;1.80;;;17.60;83.10;;;;;;5125770;27;20076;-66
2023/08/29 07:01:46;;;;;;;3.58;1.60;;;17.70;83.20;;;;;;5127133;27;20107;-68
2023/08/29 07:04:11;;;;;;;3.33;1.73;;;17.70;83.30;;;;;;5122493;27;20027;-67
2023/08/29 07:06:37;;;;;;;3.13;1.77;;;17.90;83.20;;;;;;5120251;27;20080;-65
2023/08/29 07:09:04;;;;;;;4.22;1.90;;;17.90;83.20;;;;;;5125605;27;20246;-67
2023/08/29 07:11:30;;;;;;;3.22;1.77;;;17.90;83.00;;;;;;5122108;27;20496;-67
2023/08/29 07:13:56;;;;;;;7.75;1.80;;;18.00;82.80;;;;;;5123600;27;20028;-66
2023/08/29 07:16:22;;;;;;;4.68;1.90;;;18.00;82.80;;;;;;5124465;27;20080;-66
2023/08/29 07:18:47;;;;;;;2.63;1.45;;;18.00;82.80;;;;;;5124766;27;20109;-66
2023/08/29 07:23:39;;;;;;;3.38;1.70;;;18.00;82.50;;;;;;5118606;28;20024;-64
2023/08/29 07:26:05;;;;;;;3.15;1.50;;;18.10;82.40;;;;;;5123985;28;20149;-65
2023/08/29 07:28:31;;;;;;;3.17;1.67;;;18.10;82.40;;;;;;5120307;28;20460;-64
2023/08/29 07:30:58;;;;;;;2.67;1.40;;;18.10;82.20;;;;;;5122708;28;20023;-69
2023/08/29 07:33:24;;;;;;;2.88;1.40;;;18.10;82.30;;;;;;5118389;28;20112;-69
2023/08/29 07:35:50;;;;;;;3.15;1.50;;;18.20;82.10;;;;;;5121420;28;20406;-67
2023/08/29 07:38:18;;;;;;;4.15;1.30;;;18.10;82.10;;;;;;5124245;28;20059;-67
2023/08/29 07:40:45;;;;;;;3.42;1.58;;;18.30;82.10;;;;;;5123142;28;20054;-68
2023/08/29 07:43:11;;;;;;;4.07;1.25;;;18.40;81.80;;;;;;5125137;27;20361;-67
2023/08/29 07:45:38;;;;;;;2.70;1.35;;;18.50;81.50;;;;;;5117477;27;20031;-67
2023/08/29 07:48:04;;;;;;;2.78;1.50;;;18.60;81.40;;;;;;5120332;28;20039;-63
2023/08/29 07:50:30;;;;;;;3.08;1.27;;;18.50;81.20;;;;;;5120570;28;20030;-66
2023/08/29 07:52:56;;;;;;;3.35;1.30;;;18.40;81.10;;;;;;5134033;28;20351;-69
2023/08/29 07:55:22;;;;;;;3.45;1.27;;;18.10;81.90;;;;;;5136085;27;20458;-67
2023/08/29 07:57:48;;;;;;;2.15;0.95;;;17.90;82.00;;;;;;5125308;28;20031;-69
2023/08/29 08:00:15;;;;;;;2.20;0.95;;;17.90;82.50;;;;;;5115277;28;20027;-65
2023/08/29 08:02:41;;;;;;;1.65;1.05;;;17.80;82.80;;;;;;5125731;28;20027;-64
2023/08/29 08:05:12;;;;;;;1.88;1.05;;;17.80;82.40;;;;;;5137116;27;20027;-65
2023/08/29 08:07:39;;;;;;;1.98;0.88;;;17.90;82.50;;;;;;5135819;27;20114;-69
2023/08/29 08:10:06;;;;;;;1.98;1.10;;;17.90;82.70;;;;;;5128409;27;20019;-66
2023/08/29 08:12:34;;;;;;;3.40;1.15;;;17.90;82.70;;;;;;5138447;27;20079;-67
2023/08/29 08:15:00;;;;;;;3.83;1.20;;;17.90;82.60;;;;;;5137849;27;20023;-69
2023/08/29 08:17:26;;;;;;;3.20;1.05;;;17.90;82.50;;;;;;5121133;27;20071;-65
2023/08/29 08:19:52;;;;;;;1.25;0.93;;;17.80;82.80;;;;;;5122852;27;20054;-65
2023/08/29 08:22:18;;;;;;;3.13;0.90;;;17.70;82.90;;;;;;5118768;28;20055;-67
2023/08/29 08:24:44;;;;;;;1.80;1.10;;;17.70;82.90;;;;;;5119147;28;20055;-66
2023/08/29 08:27:10;;;;;;;3.33;1.10;;;17.70;83.10;;;;;;5120205;27;20086;-65
2023/08/29 08:29:36;;;;;;;1.58;0.95;;;17.80;83.20;;;;;;5119190;28;20421;-65
2023/08/29 08:32:02;;;;;;;1.60;1.00;;;17.80;83.10;;;;;;5125673;27;20047;-64
2023/08/29 08:34:28;;;;;;;1.70;0.90;;;17.80;83.30;;;;;;5139526;27;20027;-67
2023/08/29 08:36:53;;;;;;;4.75;1.20;;;17.80;83.10;;;;;;5138825;27;20467;-66
2023/08/29 08:39:21;;;;;;;3.75;1.35;;;17.80;83.20;;;;;;5129996;27;20028;-65
2023/08/29 08:41:47;;;;;;;2.03;1.15;;;17.80;83.30;;;;;;5118026;28;20035;-68
2023/08/29 08:44:17;;;;;;;3.67;1.35;;;17.70;83.50;;;;;;5120349;27;20016;-69
2023/08/29 08:46:44;;;;;;;4.60;1.40;;;17.80;83.30;;;;;;5139505;27;20326;-69
2023/08/29 08:49:10;;;;;;;2.30;1.17;;;17.80;83.40;;;;;;5137948;27;20019;-69
2023/08/29 08:51:40;;;;;;;4.25;1.50;;;17.80;83.40;;;;;;5138715;27;20031;-68
2023/08/29 08:54:07;;;;;;;3.53;1.50;;;17.90;83.40;;;;;;5125248;27;20020;-69
2023/08/29 08:56:33;;;;;;;3.45;1.42;;;17.90;83.40;;;;;;5118136;28;20030;-69
2023/08/29 08:59:00;;;;;;;3.47;2.22;;;17.90;83.40;;;;;;5118644;28;20019;-66
2023/08/29 09:01:26;;;;;;;3.10;1.90;;;18.00;83.40;;;;;;5118063;28;20066;-68
2023/08/29 09:03:53;;;;;;;3.85;2.25;;;18.00;83.40;;;;;;5135026;27;20034;-67
2023/08/29 09:06:19;;;;;;;3.10;1.77;;;18.10;83.60;;;;;;5138183;27;20065;-68
2023/08/29 09:08:45;;;;;;;3.53;1.88;;;18.10;83.40;;;;;;5134271;27;20019;-68
2023/08/29 09:11:11;;;;;;;5.75;2.67;;;18.20;83.50;;;;;;5132856;27;20444;-67
2023/08/29 09:13:47;;;;;;;4.10;2.00;;;18.30;83.30;;;;;;5136877;27;20023;-68
2023/08/29 09:16:14;;;;;;;2.65;1.73;;;18.40;83.10;;;;;;5138105;27;20034;-68
2023/08/29 09:18:43;;;;;;;4.35;1.92;;;18.40;83.40;;;;;;5137993;27;20058;-69
2023/08/29 09:21:17;;;;;;;3.85;2.13;;;18.50;83.40;;;;;;5137217;27;20103;-67
2023/08/29 09:23:44;;;;;;;;;;;18.70;83.20;;;;;;5129052;27;20079;-67
2023/08/29 09:26:12;;;;;;;2.47;1.60;;;18.70;83.50;;;;;;5133951;27;19907;-68
2023/08/29 09:28:39;;;;;;;2.97;1.80;;;18.80;83.20;;;;;;5129816;27;20064;-68
2023/08/29 09:31:11;;;;;;;3.78;2.00;;;18.90;83.10;;;;;;5137346;27;20016;-68
2023/08/29 09:33:39;;;;;;;2.80;1.70;;;19.00;82.90;;;;;;5137251;27;20055;-68
2023/08/29 09:36:05;;;;;;;3.92;2.10;;;19.10;82.80;;;;;;5132877;27;20035;-70
2023/08/29 09:38:33;;;;;;;4.00;1.80;;;19.30;82.80;;;;;;5120422;27;20027;-70
2023/08/29 09:40:59;;;;;;;3.45;2.00;;;19.40;82.60;;;;;;5131020;27;20440;-70
2023/08/29 09:43:28;;;;;;;3.13;2.58;;;19.50;82.50;;;;;;5128131;27;20039;-70
2023/08/29 09:45:55;;;;;;;5.80;2.97;;;19.60;82.30;;;;;;5138341;27;20015;-69
2023/08/29 09:48:22;;;;;;;3.55;2.40;;;19.70;82.20;;;;;;5126905;27;20027;-70
2023/08/29 09:50:49;;;;;;;4.22;2.50;;;19.90;82.10;;;;;;5133839;27;20023;-69
2023/08/29 09:53:19;;;;;;;2.75;1.88;;;19.90;81.90;;;;;;5117530;27;20024;-69
2023/08/29 09:56:05;;;;;;;2.65;1.80;;;20.10;81.70;;;;;;5129733;27;20088;-68
2023/08/29 09:58:33;;;;;;;2.47;1.80;;;20.20;81.60;;;;;;5136988;27;20110;-71
2023/08/29 10:01:00;;;;;;;3.65;1.65;;;20.30;81.50;;;;;;5137137;27;20436;-70
2023/08/29 10:03:26;;;;;;;3.85;1.70;;;20.40;81.30;;;;;;5123429;27;20047;-69
2023/08/29 10:05:55;;;;;;;2.22;1.73;;;20.50;81.30;;;;;;5131965;27;20011;-68
2023/08/29 10:08:26;;;;;;;2.67;1.90;;;20.60;81.00;;;;;;5137019;27;20026;-68
2023/08/29 10:10:55;;;;;;;2.95;1.92;;;20.70;80.80;;;;;;5132885;27;20018;-69
2023/08/29 10:13:22;;;;;;;4.18;1.80;;;20.80;80.70;;;;;;5129255;27;20031;-69
2023/08/29 10:15:49;;;;;;;3.97;1.58;;;20.80;80.50;;;;;;5132597;27;20425;-69
2023/08/29 10:18:16;;;;;;;2.28;1.65;;;20.90;80.40;;;;;;5127198;27;20042;-68
2023/08/29 10:20:43;;;;;;;2.95;2.03;;;20.90;80.30;;;;;;5123670;27;20352;-68
2023/08/29 10:23:11;;;;;;;2.80;1.92;;;20.90;80.20;;;;;;5133352;27;20043;-69
2023/08/29 10:25:38;;;;;;;2.55;1.60;;;21.00;80.10;;;;;;5131712;27;20027;-68
2023/08/29 10:28:08;;;;;;;2.80;1.90;;;21.00;80.10;;;;;;5129064;27;20444;-69
2023/08/29 10:30:38;;;;;;;4.63;1.85;;;21.00;80.10;;;;;;5132691;27;20027;-67
2023/08/29 10:33:05;;;;;;;2.40;1.60;;;21.10;80.10;;;;;;5134912;27;20050;-68
2023/08/29 10:35:33;;;;;;;3.38;1.40;;;21.20;80.00;;;;;;5135586;27;20051;-69
2023/08/29 10:38:15;;;;;;;2.38;1.30;;;21.20;79.90;;;;;;5136169;27;20352;-69
2023/08/29 10:40:42;;;;;;;2.55;1.65;;;21.40;79.70;;;;;;5135459;27;20049;-69
2023/08/29 10:43:19;;;;;;;3.28;1.20;;;21.40;79.60;;;;;;5135865;27;20042;-69
2023/08/29 10:45:48;;;;;;;3.67;1.60;;;21.50;79.40;;;;;;5137049;27;20023;-68
2023/08/29 10:48:24;;;;;;;2.58;1.45;;;21.60;79.30;;;;;;5137346;27;20348;-69
2023/08/29 10:51:09;;;;;;;1.45;1.27;;;21.80;79.10;;;;;;5136589;27;20033;-69
2023/08/29 10:53:40;;;;;;;2.95;1.40;;;21.90;78.90;;;;;;5136899;27;20027;-68
2023/08/29 10:56:10;;;;;;;1.88;1.52;;;21.90;78.60;;;;;;5136649;27;20034;-69
2023/08/29 10:58:38;;;;;;;1.50;1.33;;;22.00;78.50;;;;;;5136604;27;20039;-69
2023/08/29 11:01:06;;;;;;;2.50;1.38;;;22.00;78.10;;;;;;5135529;27;20023;-69
2023/08/29 11:03:48;;;;;;;3.40;1.50;;;22.10;77.80;;;;;;5136455;27;20030;-69
2023/08/29 11:06:16;;;;;;;1.45;1.35;;;22.20;77.50;;;;;;5118963;28;20305;-68
2023/08/29 11:08:43;;;;;;;1.85;1.10;;;22.20;77.20;;;;;;5136745;27;20042;-69
2023/08/29 11:11:22;;;;;;;1.70;0.93;;;22.20;77.20;;;;;;5135406;27;20106;-69
2023/08/29 11:14:08;;;;;;;1.15;1.10;;;22.30;76.90;;;;;;5136428;27;20044;-69
2023/08/29 11:16:35;;;;;;;2.35;1.50;;;22.30;76.60;;;;;;5135871;27;20027;-69
2023/08/29 11:19:11;;;;;;;1.35;1.00;;;22.40;76.80;;;;;;5136308;27;20036;-68
2023/08/29 11:21:38;;;;;;;2.92;1.15;;;22.40;76.50;;;;;;5136515;27;20075;-69
2023/08/29 11:24:05;;;;;;;1.70;1.20;;;22.40;76.00;;;;;;5135434;27;20459;-68
2023/08/29 11:26:37;;;;;;;1.95;1.20;;;22.50;76.10;;;;;;5135255;28;20029;-68
2023/08/29 11:29:08;;;;;;;2.17;1.35;;;22.60;75.90;;;;;;5135266;28;20023;-69
2023/08/29 11:31:43;;;;;;;4.25;1.50;;;22.60;75.80;;;;;;5136482;27;20015;-69
2023/08/29 11:34:17;;;;;;;2.13;1.25;;;22.70;75.70;;;;;;5136157;27;20030;-69
2023/08/29 11:36:48;;;;;;;4.15;1.73;;;22.80;75.50;;;;;;5136434;27;20019;-69
2023/08/29 11:39:17;;;;;;;4.30;1.65;;;22.90;75.30;;;;;;5138992;27;20100;-69
2023/08/29 11:41:45;;;;;;;2.75;1.80;;;23.00;75.00;;;;;;5139169;27;20033;-68
2023/08/29 11:44:11;;;;;;;3.15;1.58;;;23.00;74.90;;;;;;5139268;27;20026;-68
2023/08/29 11:46:37;;;;;;;2.47;1.65;;;23.20;74.70;;;;;;5139423;27;20019;-69
2023/08/29 11:49:13;;;;;;;4.80;2.20;;;23.20;74.40;;;;;;5140785;27;20023;-68
2023/08/29 11:51:40;;;;;;;3.22;1.73;;;23.30;73.80;;;;;;5140344;27;20393;-68
2023/08/29 11:54:41;;;;;;;2.58;1.50;;;23.20;73.90;;;;;;5140177;27;20076;-69
2023/08/29 11:57:10;;;;;;;3.40;2.00;;;23.20;73.10;;;;;;5140733;27;20022;-69
2023/08/29 11:59:42;;;;;;;3.88;1.98;;;23.20;73.50;;;;;;5140064;27;20046;-69
2023/08/29 12:02:16;;;;;;;2.40;1.90;;;23.10;73.10;;;;;;5140206;27;20121;-69
2023/08/29 12:04:43;;;;;;;3.70;2.10;;;23.00;73.50;;;;;;5140270;27;20027;-69
2023/08/29 12:07:14;;;;;;;3.10;1.90;;;23.00;73.50;;;;;;5139085;27;20016;-68
2023/08/29 12:09:42;;;;;;;5.00;2.08;;;23.00;73.70;;;;;;5140434;27;20035;-69
2023/08/29 12:12:09;;;;;;;4.28;2.22;;;22.90;73.80;;;;;;5139648;27;20080;-68
2023/08/29 12:14:51;;;;;;;7.40;2.10;;;22.90;73.80;;;;;;5139964;27;20027;-68
2023/08/29 12:17:19;;;;;;;2.72;1.80;;;22.90;73.70;;;;;;5139300;27;20019;-68
2023/08/29 12:19:46;;;;;;;4.93;2.08;;;22.90;73.90;;;;;;5139694;27;20176;-68
2023/08/29 12:22:14;;;;;;;4.03;1.67;;;22.90;73.70;;;;;;5139901;27;20046;-69
2023/08/29 12:24:40;;;;;;;3.00;1.60;;;22.90;73.70;;;;;;5138575;27;20034;-68
2023/08/29 12:27:08;;;;;;;3.85;1.65;;;22.90;73.80;;;;;;5139584;27;20023;-69
2023/08/29 12:29:39;;;;;;;4.75;1.58;;;23.00;73.80;;;;;;5140012;27;20027;-69
2023/08/29 12:32:06;;;;;;;3.25;1.60;;;23.00;73.70;;;;;;5139511;27;20047;-69
2023/08/29 12:34:31;;;;;;;3.13;1.80;;;23.00;72.70;;;;;;5139362;27;20100;-68
2023/08/29 12:36:57;;;;;;;8.02;1.50;;;22.90;73.00;;;;;;5139346;27;20057;-68
2023/08/29 12:39:24;;;;;;;2.65;1.40;;;22.90;73.00;;;;;;5139272;27;20041;-68
2023/08/29 12:41:50;;;;;;;2.95;1.42;;;22.90;72.60;;;;;;5138955;27;20375;-68
2023/08/29 12:44:16;;;;;;;2.67;1.48;;;22.90;72.80;;;;;;5139738;27;20023;-68
2023/08/29 12:46:42;;;;;;;2.50;1.42;;;22.90;72.80;;;;;;5139055;27;20027;-68
2023/08/29 12:49:08;;;;;;;2.58;1.20;;;22.80;72.90;;;;;;5139039;27;20508;-68
2023/08/29 12:51:35;;;;;;;2.30;1.20;;;22.80;73.10;;;;;;5137331;27;20047;-68
2023/08/29 12:54:02;;;;;;;2.15;1.50;;;22.90;73.10;;;;;;5138878;27;20444;-67